Terminal Aerodrome Forecast
Issued by NWS

Home | Current Version | Previous Version | Text Only | Print | Product List | Glossary On
Versions: 1 2 3 4 5 6 7 8 9 10 11 12 13 14 15 16 17 18 19 20 21 22 23
000
FTUS44 KTSA 232200 AAC
TAFXNA
TAF AMD
KXNA 232204Z 2322/2418 22009KT P6SM VCTS BKN028CB
      TEMPO 2322/2402 4SM -TSRA BR BKN018CB
     FM240600 31014G19KT P6SM BKN025
     FM240900 30014KT P6SM SCT035
     FM241400 28011KT P6SM SCT050=

USA.gov is the U.S. government's official web portal to all federal, state and local government web resources and services.